»·PEaware :: N2102W KOXR-KPOC

N2102W :: KOXR-KPOC

FLIGHT INFORMATION

Flight Status: Arrived
Operator: Privately registered:
United States
More flights under this callsign
Pilot: Eric G. (5941)
Aircraft: BEECH AIRCRAFT BARON
(BE58)
More flights by this aircraft type
Origin: KOXR Oxnard
United States
Destination: KPOC Brackett
United States
More flights between these airports :: More routes between these airports
Route: VTU044 GINNA V326 VNY V186 PDZ
File this flight plan on PilotEdge
Remarks:
Altitude:
(Current/Filed)
5,000ft
Speed:
(Current/Filed)
225kts
Departed: 15-Oct-23 07:31 AM
Arrived: 15-Oct-23 08:08 AM
Distance/Time
Traveled:
71nm/0:37
Distance/Time
To Go:
Arrived

Flight Plot

Page will automatically refresh every two minutes.


Map Options




Map Legend


Flown Route
Filed Route
Departure Airport
Arrival Airport
Navaid (VOR, NDB)
Fix

Horizontal Profiles

Position Reports

Time Latitude Longitude Heading Altitude Ground
Speed
15-Oct-23 07:11 34.199333 -119.205797 180 46ft 0kts
15-Oct-23 07:12 34.199333 -119.205797 180 46ft 0kts
15-Oct-23 07:13 34.199333 -119.205797 180 46ft 0kts
15-Oct-23 07:14 34.199333 -119.205797 180 46ft 0kts
15-Oct-23 07:15 34.199333 -119.205797 180 46ft 0kts
15-Oct-23 07:16 34.199332 -119.205797 358 46ft 0kts
15-Oct-23 07:17 34.199332 -119.205797 358 46ft 0kts
15-Oct-23 07:18 34.199332 -119.205797 358 46ft 0kts
15-Oct-23 07:19 34.199332 -119.205797 358 46ft 0kts
15-Oct-23 07:20 34.199332 -119.205797 358 46ft 0kts
15-Oct-23 07:21 34.199332 -119.205797 358 46ft 0kts
15-Oct-23 07:22 34.199332 -119.205797 358 46ft 0kts
15-Oct-23 07:23 34.199332 -119.205797 358 46ft 0kts
15-Oct-23 07:24 34.199351 -119.205798 358 46ft 1kts
15-Oct-23 07:25 34.199766 -119.201460 88 47ft 21kts
15-Oct-23 07:26 34.199992 -119.197558 357 43ft 0kts
15-Oct-23 07:27 34.199992 -119.197558 357 43ft 0kts
15-Oct-23 07:28 34.199992 -119.197558 357 43ft 0kts
15-Oct-23 07:29 34.200515 -119.197521 18 43ft 8kts
15-Oct-23 07:30 34.200777 -119.203416 270 47ft 87kts
15-Oct-23 07:31 34.198933 -119.245089 270 949ft 143kts
15-Oct-23 07:32 34.199246 -119.295070 268 2154ft 151kts
15-Oct-23 07:33 34.194022 -119.345866 231 3387ft 152kts
15-Oct-23 07:34 34.169936 -119.327449 79 4330ft 147kts
15-Oct-23 07:35 34.176706 -119.277514 82 5033ft 166kts
15-Oct-23 07:36 34.183798 -119.217999 81 5030ft 185kts
15-Oct-23 07:37 34.191147 -119.155805 81 5026ft 188kts
15-Oct-23 07:38 34.198497 -119.093032 81 5032ft 189kts
15-Oct-23 07:39 34.205839 -119.030136 81 5029ft 189kts
15-Oct-23 07:40 34.213185 -118.966882 81 4996ft 190kts
15-Oct-23 07:41 34.220378 -118.903625 81 5000ft 190kts
15-Oct-23 07:42 34.225150 -118.840179 94 5002ft 189kts
15-Oct-23 07:43 34.223597 -118.776514 89 5014ft 189kts
15-Oct-23 07:44 34.222873 -118.712689 89 5016ft 191kts
15-Oct-23 07:45 34.222522 -118.648092 89 4978ft 192kts
15-Oct-23 07:46 34.222711 -118.583378 88 4913ft 192kts
15-Oct-23 07:47 34.222608 -118.519918 89 4997ft 189kts
15-Oct-23 07:48 34.210357 -118.458879 108 4998ft 190kts
15-Oct-23 07:49 34.192457 -118.398353 108 5015ft 191kts
15-Oct-23 07:50 34.174608 -118.337644 108 5013ft 191kts
15-Oct-23 07:51 34.156979 -118.276886 108 5014ft 192kts
15-Oct-23 07:52 34.139275 -118.215896 108 5016ft 192kts
15-Oct-23 07:53 34.121700 -118.155005 108 5014ft 191kts
15-Oct-23 07:54 34.104062 -118.094019 108 5012ft 192kts
15-Oct-23 07:55 34.085697 -118.033518 110 5025ft 193kts
15-Oct-23 07:56 34.050025 -117.990312 156 4874ft 200kts
15-Oct-23 07:57 33.997128 -117.964214 156 3993ft 200kts
15-Oct-23 07:58 33.947211 -117.939682 156 3989ft 191kts
15-Oct-23 07:59 33.922752 -117.891958 94 4002ft 185kts
15-Oct-23 08:00 33.921286 -117.830263 90 3997ft 180kts
15-Oct-23 08:01 33.944827 -117.786434 9 3536ft 191kts
15-Oct-23 08:02 33.997254 -117.783411 3 2658ft 192kts
15-Oct-23 08:03 34.045002 -117.786920 12 2232ft 157kts
15-Oct-23 08:04 34.064893 -117.748233 78 1884ft 136kts
15-Oct-23 08:05 34.084748 -117.714605 344 1841ft 131kts
15-Oct-23 08:06 34.089876 -117.753928 273 1435ft 105kts
15-Oct-23 08:07 34.091403 -117.783585 274 989ft 31kts
15-Oct-23 08:08 34.091985 -117.784433 3 989ft 6kts
15-Oct-23 08:09 34.093271 -117.785886 197 982ft 0kts
15-Oct-23 08:10 34.093271 -117.785886 197 982ft 0kts

Navigation Log

Ident Type
Flight plan parsing failed, navigation log unavailable